createdAt,value
2017-02-05T00:00:11.339Z,1001.98
2017-02-05T00:00:36.901Z,1001.97
2017-02-05T00:01:02.485Z,1002.01
2017-02-05T00:01:28.026Z,1002.05
2017-02-05T05:00:56.061Z,1002.13
2017-02-05T05:01:21.641Z,1002.13
2017-02-05T05:01:47.337Z,1002.14
2017-02-05T05:02:12.905Z,1002.14
2017-02-05T05:02:38.593Z,1002.11
2017-02-05T05:03:04.176Z,1002.17
2017-02-05T05:03:29.736Z,1002.14
2017-02-05T05:03:55.307Z,1002.19
2017-02-05T05:04:20.961Z,1002.18
2017-02-05T05:04:46.533Z,1002.16
2017-02-05T05:05:12.152Z,1002.15
2017-02-05T05:05:37.719Z,1002.15
2017-02-05T05:06:03.309Z,1002.15
2017-02-05T05:06:28.858Z,1002.11
2017-02-05T05:06:54.583Z,1002.14
2017-02-05T05:07:20.144Z,1002.18
2017-02-05T05:07:45.699Z,1002.16
2017-02-05T05:08:11.318Z,1002.16
2017-02-05T05:08:36.914Z,1002.18
2017-02-05T05:09:02.496Z,1002.18
2017-02-05T05:09:28.049Z,1002.21
2017-02-05T05:09:54.103Z,1002.22
2017-02-05T05:10:19.696Z,1002.19
2017-02-05T05:10:45.263Z,1002.21
2017-02-05T05:11:10.818Z,1002.18
2017-02-05T05:11:36.376Z,1002.24
2017-02-05T05:12:02.027Z,1002.24
2017-02-05T05:12:27.592Z,1002.18
2017-02-05T05:12:53.137Z,1002.19
2017-02-05T05:13:18.849Z,1002.18
2017-02-05T05:13:44.430Z,1002.17
2017-02-05T05:14:09.988Z,1002.2
2017-02-05T05:14:35.608Z,1002.18
2017-02-05T05:15:01.210Z,1002.15
2017-02-05T05:15:26.790Z,1002.22
2017-02-05T05:15:52.341Z,1002.21
2017-02-05T05:16:17.905Z,1002.19
2017-02-05T05:16:43.461Z,1002.22
2017-02-05T05:17:09.020Z,1002.19
2017-02-05T05:17:34.584Z,1002.2
2017-02-05T05:20:20.003Z,1002.23
2017-02-05T05:20:45.564Z,1002.22
2017-02-05T05:21:11.127Z,1002.23
2017-02-05T05:21:36.685Z,1002.23
2017-02-05T05:22:02.266Z,1002.24
2017-02-05T05:22:27.816Z,1002.21
2017-02-05T05:22:53.378Z,1002.27
2017-02-05T05:23:19.016Z,1002.29
2017-02-05T05:23:44.584Z,1002.28
2017-02-05T05:24:10.148Z,1002.24
2017-02-05T05:24:35.734Z,1002.26
2017-02-05T05:25:01.290Z,1002.26
2017-02-05T05:25:26.858Z,1002.26
2017-02-05T05:25:52.453Z,1002.29
2017-02-05T05:26:18.101Z,1002.28
2017-02-05T05:26:43.728Z,1002.28
2017-02-05T05:27:09.318Z,1002.34
2017-02-05T05:27:34.883Z,1002.31
2017-02-05T05:28:00.468Z,1002.3
2017-02-05T05:28:26.075Z,1002.29
2017-02-05T05:28:51.624Z,1002.33
2017-02-05T05:29:17.216Z,1002.3
2017-02-05T05:29:42.927Z,1002.3
2017-02-05T05:30:08.503Z,1002.28
2017-02-05T05:30:34.066Z,1002.3
2017-02-05T05:30:59.625Z,1002.27
2017-02-05T05:31:25.186Z,1002.3
2017-02-05T05:31:50.721Z,1002.32
2017-02-05T05:32:16.252Z,1002.28
2017-02-05T05:32:41.811Z,1002.34
2017-02-05T05:33:07.481Z,1002.29
2017-02-05T05:33:33.032Z,1002.31
2017-02-05T05:33:58.600Z,1002.33
2017-02-05T05:34:24.151Z,1002.32
2017-02-05T05:34:49.705Z,1002.3
2017-02-05T05:35:15.281Z,1002.31
2017-02-05T05:35:40.869Z,1002.3
2017-02-05T05:36:06.423Z,1002.31
2017-02-05T05:37:20.114Z,1002.31
2017-02-05T05:37:45.659Z,1002.32
2017-02-05T05:38:11.226Z,1002.33
2017-02-05T05:40:18.528Z,1002.35
2017-02-05T05:40:44.095Z,1002.33
2017-02-05T05:41:09.770Z,1002.34
2017-02-05T05:41:35.325Z,1002.37
2017-02-05T05:42:00.913Z,1002.37
2017-02-05T05:42:26.473Z,1002.36
2017-02-05T05:42:52.078Z,1002.37
2017-02-05T05:43:17.639Z,1002.35
2017-02-05T05:43:43.189Z,1002.4
2017-02-05T05:44:08.767Z,1002.38
2017-02-05T05:44:34.359Z,1002.39
2017-02-05T05:44:59.969Z,1002.35
2017-02-05T05:45:25.515Z,1002.39
2017-02-05T05:45:51.089Z,1002.38
2017-02-05T05:46:16.648Z,1002.4
2017-02-05T05:46:42.202Z,1002.35
2017-02-05T05:47:07.766Z,1002.36
2017-02-05T05:47:33.339Z,1002.4
2017-02-05T05:47:58.893Z,1002.37
2017-02-05T05:48:24.457Z,1002.38
2017-02-05T05:48:50.057Z,1002.39
2017-02-05T05:49:15.624Z,1002.36
2017-02-05T05:49:41.221Z,1002.42
2017-02-05T05:50:06.908Z,1002.39
2017-02-05T05:50:32.468Z,1002.44
2017-02-05T05:50:58.022Z,1002.43
2017-02-05T05:51:23.601Z,1002.42
2017-02-05T05:51:49.177Z,1002.38
2017-02-05T05:52:14.727Z,1002.4
2017-02-05T05:52:40.259Z,1002.42
2017-02-05T05:53:05.839Z,1002.41
2017-02-05T05:53:31.473Z,1002.43
2017-02-05T05:53:57.123Z,1002.42
2017-02-05T05:54:22.677Z,1002.42
2017-02-05T05:54:48.253Z,1002.39
2017-02-05T05:55:13.918Z,1002.44
2017-02-05T05:55:39.476Z,1002.4
2017-02-05T05:56:05.047Z,1002.43
2017-02-05T05:56:30.652Z,1002.43
2017-02-05T05:56:56.335Z,1002.41
2017-02-05T05:57:21.885Z,1002.42
2017-02-05T05:57:47.516Z,1002.42
2017-02-05T05:58:13.092Z,1002.41
2017-02-05T05:58:38.656Z,1002.41
2017-02-05T05:59:04.224Z,1002.46
2017-02-05T05:59:29.792Z,1002.47
2017-02-05T05:59:55.354Z,1002.45
2017-02-05T06:00:20.929Z,1002.48
2017-02-05T06:00:46.479Z,1002.47
2017-02-05T06:01:12.053Z,1002.46
2017-02-05T06:01:37.625Z,1002.48
2017-02-05T06:02:03.188Z,1002.49
2017-02-05T06:02:28.790Z,1002.5
2017-02-05T06:02:54.486Z,1002.46
2017-02-05T06:03:20.055Z,1002.52
2017-02-05T06:03:45.606Z,1002.5
2017-02-05T06:04:11.179Z,1002.52
2017-02-05T06:04:36.870Z,1002.5
2017-02-05T06:05:02.426Z,1002.51
2017-02-05T06:05:27.972Z,1002.54
2017-02-05T06:05:53.577Z,1002.54
2017-02-05T06:06:19.253Z,1002.51
2017-02-05T06:06:44.818Z,1002.51
2017-02-05T06:07:10.388Z,1002.55
2017-02-05T06:07:35.954Z,1002.51
2017-02-05T06:08:01.618Z,1002.55
2017-02-05T06:08:27.197Z,1002.53
2017-02-05T06:08:52.768Z,1002.53
2017-02-05T06:09:18.420Z,1002.55
2017-02-05T06:09:43.989Z,1002.53
2017-02-05T06:10:09.653Z,1002.53
2017-02-05T06:10:35.285Z,1002.57
2017-02-05T06:11:00.881Z,1002.55
2017-02-05T06:11:26.513Z,1002.53
2017-02-05T06:11:52.073Z,1002.56
2017-02-05T06:12:17.642Z,1002.53
2017-02-05T06:12:43.224Z,1002.55
2017-02-05T06:13:08.783Z,1002.54
2017-02-05T06:13:34.337Z,1002.51
2017-02-05T06:13:59.927Z,1002.58
2017-02-05T06:14:25.604Z,1002.54
2017-02-05T06:14:51.203Z,1002.53
2017-02-05T06:15:16.781Z,1002.53
2017-02-05T06:15:42.345Z,1002.52
2017-02-05T06:16:07.904Z,1002.54
2017-02-05T06:16:33.491Z,1002.58
2017-02-05T06:16:59.106Z,1002.59
2017-02-05T06:17:24.664Z,1002.57
2017-02-05T06:17:50.224Z,1002.56
2017-02-05T06:18:15.773Z,1002.56
2017-02-05T06:18:41.376Z,1002.55
2017-02-05T06:19:06.983Z,1002.56
2017-02-05T06:19:32.693Z,1002.57
2017-02-05T06:19:58.289Z,1002.56
2017-02-05T06:20:23.853Z,1002.55
2017-02-05T06:20:49.491Z,1002.56
2017-02-05T06:21:15.055Z,1002.54
2017-02-05T06:21:40.615Z,1002.55
2017-02-05T06:22:06.313Z,1002.55
2017-02-05T06:22:31.911Z,1002.52
2017-02-05T06:22:57.470Z,1002.56
2017-02-05T06:23:23.059Z,1002.6
2017-02-05T06:23:48.751Z,1002.58
2017-02-05T06:24:14.426Z,1002.56
2017-02-05T06:24:39.990Z,1002.55
2017-02-05T06:25:05.586Z,1002.6
2017-02-05T06:25:31.143Z,1002.55
2017-02-05T06:25:56.740Z,1002.56
2017-02-05T06:26:22.327Z,1002.57
2017-02-05T06:26:47.933Z,1002.54
2017-02-05T06:27:13.512Z,1002.53
2017-02-05T06:27:39.104Z,1002.59
2017-02-05T06:28:04.754Z,1002.54
2017-02-05T06:28:30.331Z,1002.54
2017-02-05T06:28:55.891Z,1002.61
2017-02-05T06:29:21.453Z,1002.56
2017-02-05T06:29:47.134Z,1002.58
2017-02-05T06:30:12.695Z,1002.58
2017-02-05T06:30:38.318Z,1002.58
2017-02-05T06:31:03.905Z,1002.61
2017-02-05T06:31:29.478Z,1002.6
2017-02-05T06:31:55.047Z,1002.63
2017-02-05T06:32:20.772Z,1002.56
2017-02-05T06:32:46.334Z,1002.64
2017-02-05T06:33:11.893Z,1002.63
2017-02-05T06:33:37.473Z,1002.6
2017-02-05T06:34:03.169Z,1002.6
2017-02-05T06:34:28.753Z,1002.66
2017-02-05T06:34:54.304Z,1002.63
2017-02-05T06:35:19.856Z,1002.61
2017-02-05T06:35:45.434Z,1002.64
2017-02-05T06:36:10.996Z,1002.62
2017-02-05T06:36:36.553Z,1002.62
2017-02-05T06:37:02.130Z,1002.67
2017-02-05T06:37:27.746Z,1002.64
2017-02-05T06:37:53.305Z,1002.62
2017-02-05T06:38:18.861Z,1002.66
2017-02-05T06:38:44.532Z,1002.64
2017-02-05T06:39:53.188Z,1002.66
2017-02-05T06:40:18.745Z,1002.63
2017-02-05T06:40:44.307Z,1002.65
2017-02-05T06:41:09.863Z,1002.65
2017-02-05T06:41:35.420Z,1002.67
2017-02-05T06:42:01.076Z,1002.68
2017-02-05T06:43:14.476Z,1002.67
2017-02-05T06:43:40.030Z,1002.67
2017-02-05T06:44:05.640Z,1002.71
2017-02-05T06:44:31.239Z,1002.71
2017-02-05T06:44:56.825Z,1002.69
2017-02-05T06:46:00.274Z,1002.73
2017-02-05T06:46:25.841Z,1002.77
2017-02-05T06:46:51.401Z,1002.73
2017-02-05T06:47:17.052Z,1002.72
2017-02-05T06:47:42.617Z,1002.73
2017-02-05T06:48:08.176Z,1002.76
2017-02-05T06:48:33.884Z,1002.76
2017-02-05T06:48:59.430Z,1002.75
2017-02-05T06:49:25.003Z,1002.77
2017-02-05T06:49:50.647Z,1002.77
2017-02-05T06:50:16.256Z,1002.75
2017-02-05T06:50:41.816Z,1002.79
2017-02-05T06:51:07.377Z,1002.82
2017-02-05T06:51:33.015Z,1002.82
2017-02-05T06:51:58.572Z,1002.76
2017-02-05T06:52:24.188Z,1002.78
2017-02-05T06:52:49.833Z,1002.82
2017-02-05T06:53:15.387Z,1002.78
2017-02-05T06:53:40.956Z,1002.82
2017-02-05T06:54:06.646Z,1002.81
2017-02-05T06:54:32.219Z,1002.8
2017-02-05T06:54:57.777Z,1002.79
2017-02-05T06:55:23.448Z,1002.81
2017-02-05T06:55:49.015Z,1002.82
2017-02-05T06:56:14.603Z,1002.8
2017-02-05T06:56:40.157Z,1002.81
2017-02-05T06:57:05.864Z,1002.79
2017-02-05T06:57:31.420Z,1002.81
2017-02-05T06:57:56.979Z,1002.83
2017-02-05T06:58:22.542Z,1002.83
2017-02-05T06:58:48.128Z,1002.85
2017-02-05T06:59:13.693Z,1002.81
2017-02-05T06:59:39.250Z,1002.82
2017-02-05T07:00:04.816Z,1002.78
2017-02-05T07:00:30.474Z,1002.8
2017-02-05T07:01:28.852Z,1002.78
2017-02-05T07:01:54.420Z,1002.82
2017-02-05T07:02:20.085Z,1002.8
2017-02-05T07:02:45.847Z,1002.78
2017-02-05T07:03:11.413Z,1002.8
2017-02-05T07:03:36.984Z,1002.78
2017-02-05T07:04:02.608Z,1002.82
2017-02-05T07:04:28.166Z,1002.77
2017-02-05T07:04:53.737Z,1002.78
2017-02-05T07:05:19.310Z,1002.78
2017-02-05T07:05:44.982Z,1002.75
2017-02-05T07:06:10.560Z,1002.76
2017-02-05T07:06:36.115Z,1002.79
2017-02-05T07:07:01.837Z,1002.81
2017-02-05T07:07:27.375Z,1002.82
2017-02-05T07:07:52.945Z,1002.81
2017-02-05T07:08:18.590Z,1002.79
2017-02-05T07:08:44.156Z,1002.77
2017-02-05T07:09:09.734Z,1002.79
2017-02-05T07:09:35.304Z,1002.78
2017-02-05T07:10:00.870Z,1002.76
2017-02-05T07:10:26.428Z,1002.76
2017-02-05T07:10:52.017Z,1002.75
2017-02-05T07:11:17.596Z,1002.75
2017-02-05T07:12:15.961Z,1002.77
2017-02-05T07:14:31.434Z,1002.74
2017-02-05T07:14:57.082Z,1002.79
2017-02-05T07:15:22.613Z,1002.73
2017-02-05T07:15:48.172Z,1002.73
2017-02-05T07:16:13.869Z,1002.75
2017-02-05T07:16:39.436Z,1002.76
2017-02-05T07:17:04.990Z,1002.79
2017-02-05T07:17:30.548Z,1002.77
2017-02-05T07:17:56.214Z,1002.77
2017-02-05T07:18:21.870Z,1002.76
2017-02-05T07:18:47.443Z,1002.75
2017-02-05T07:19:13.051Z,1002.75
2017-02-05T07:19:38.622Z,1002.76
2017-02-05T07:20:04.244Z,1002.77
2017-02-05T07:20:29.835Z,1002.75
2017-02-05T07:20:55.390Z,1002.72
2017-02-05T07:21:20.950Z,1002.73
2017-02-05T07:21:46.588Z,1002.73
2017-02-05T07:22:12.143Z,1002.75
2017-02-05T07:22:37.696Z,1002.73
2017-02-05T07:23:03.267Z,1002.74
2017-02-05T07:23:28.836Z,1002.75
2017-02-05T07:23:54.391Z,1002.76
2017-02-05T07:24:20.079Z,1002.78
2017-02-05T07:24:45.639Z,1002.76
2017-02-05T07:25:11.191Z,1002.79
2017-02-05T07:25:36.781Z,1002.74
2017-02-05T07:26:02.339Z,1002.75
2017-02-05T07:26:27.910Z,1002.75
2017-02-05T07:26:53.605Z,1002.71
2017-02-05T07:27:19.197Z,1002.77
2017-02-05T07:27:44.765Z,1002.73
2017-02-05T07:28:10.416Z,1002.76
2017-02-05T07:28:35.973Z,1002.74
2017-02-05T07:29:01.544Z,1002.75
2017-02-05T07:29:27.113Z,1002.78
2017-02-05T07:29:52.834Z,1002.78
2017-02-05T07:30:18.394Z,1002.76
2017-02-05T07:30:43.941Z,1002.81
2017-02-05T07:31:09.636Z,1002.76
2017-02-05T07:31:35.217Z,1002.79
2017-02-05T07:32:00.768Z,1002.82
2017-02-05T07:32:26.340Z,1002.8
2017-02-05T07:32:51.914Z,1002.78
2017-02-05T07:33:17.461Z,1002.77
2017-02-05T07:33:43.024Z,1002.79
2017-02-05T07:34:08.587Z,1002.77
2017-02-05T07:34:34.140Z,1002.8
2017-02-05T07:34:59.717Z,1002.82
2017-02-05T07:35:25.271Z,1002.82
2017-02-05T07:35:50.842Z,1002.81
2017-02-05T07:36:16.422Z,1002.81
2017-02-05T07:36:41.990Z,1002.85
2017-02-05T07:37:07.655Z,1002.84
2017-02-05T07:37:33.225Z,1002.86
2017-02-05T07:37:58.784Z,1002.85
2017-02-05T07:38:24.382Z,1002.82
2017-02-05T07:38:49.984Z,1002.84
2017-02-05T07:39:15.545Z,1002.87
2017-02-05T07:39:41.106Z,1002.82
2017-02-05T07:40:06.817Z,1002.83
2017-02-05T07:40:32.372Z,1002.84
2017-02-05T07:40:57.931Z,1002.83
2017-02-05T07:41:23.483Z,1002.85
2017-02-05T07:41:49.042Z,1002.86
2017-02-05T07:42:14.600Z,1002.9
2017-02-05T07:42:40.156Z,1002.86
2017-02-05T07:43:05.728Z,1002.9
2017-02-05T07:43:31.308Z,1002.87
2017-02-05T07:43:56.969Z,1002.89
2017-02-05T07:44:22.573Z,1002.89
2017-02-05T07:44:48.142Z,1002.92
2017-02-05T07:45:13.747Z,1002.94
2017-02-05T07:45:39.313Z,1002.88
2017-02-05T07:46:04.880Z,1002.91
2017-02-05T07:46:30.446Z,1002.91
2017-02-05T07:46:56.036Z,1002.92
2017-02-05T07:47:21.637Z,1002.88
2017-02-05T07:47:47.184Z,1002.91
2017-02-05T07:48:12.744Z,1002.9
2017-02-05T07:48:38.302Z,1002.9
2017-02-05T07:49:03.882Z,1002.88
2017-02-05T07:49:29.456Z,1002.82
2017-02-05T07:49:55.037Z,1002.85
2017-02-05T07:50:20.593Z,1002.83
2017-02-05T07:50:46.133Z,1002.84
2017-02-05T07:51:11.705Z,1002.84
2017-02-05T07:51:37.296Z,1002.88
2017-02-05T07:52:02.864Z,1002.83
2017-02-05T07:52:28.580Z,1002.87
2017-02-05T07:52:54.162Z,1002.85
2017-02-05T07:53:19.745Z,1002.88
2017-02-05T07:53:45.303Z,1002.87
2017-02-05T07:54:11.003Z,1002.87
2017-02-05T07:54:36.784Z,1002.86
2017-02-05T07:55:02.373Z,1002.86
2017-02-05T07:55:28.144Z,1002.87
2017-02-05T07:55:53.714Z,1002.88
2017-02-05T07:56:19.350Z,1002.92
2017-02-05T07:56:44.997Z,1002.88
2017-02-05T07:57:10.545Z,1002.95
2017-02-05T07:57:36.138Z,1002.91
2017-02-05T07:58:01.797Z,1002.91
2017-02-05T07:58:27.498Z,1002.91
2017-02-05T07:58:53.106Z,1002.86
2017-02-05T07:59:18.715Z,1002.93
2017-02-05T07:59:44.340Z,1002.92
2017-02-05T08:00:10.078Z,1002.89
2017-02-05T08:00:35.696Z,1002.96
2017-02-05T08:01:01.347Z,1002.93
2017-02-05T08:01:26.894Z,1002.95
2017-02-05T08:01:52.546Z,1002.91
2017-02-05T08:02:18.111Z,1002.91
2017-02-05T08:02:43.676Z,1002.94
2017-02-05T08:03:09.409Z,1002.94
2017-02-05T08:03:35.000Z,1002.93
2017-02-05T08:04:00.565Z,1002.93
2017-02-05T08:04:26.257Z,1002.92
2017-02-05T08:04:51.888Z,1002.93
2017-02-05T08:05:55.745Z,1002.91
2017-02-05T08:06:21.306Z,1002.92
2017-02-05T08:06:47.021Z,1002.92
2017-02-05T08:07:12.705Z,1002.89
2017-02-05T08:07:38.268Z,1002.9
2017-02-05T08:08:03.896Z,1002.93
2017-02-05T08:08:29.445Z,1002.87
2017-02-05T08:08:55.003Z,1002.88
2017-02-05T08:09:20.568Z,1002.92
2017-02-05T08:09:46.185Z,1002.91
2017-02-05T08:10:11.953Z,1002.87
2017-02-05T08:10:37.437Z,1002.91
2017-02-05T08:11:02.996Z,1002.93
2017-02-05T08:11:28.622Z,1002.86
2017-02-05T08:11:54.196Z,1002.91
2017-02-05T08:12:19.763Z,1002.9
2017-02-05T08:12:45.484Z,1002.86
2017-02-05T08:13:11.003Z,1002.91
2017-02-05T08:13:36.558Z,1002.87
2017-02-05T08:14:02.195Z,1002.88
2017-02-05T08:14:27.878Z,1002.87
2017-02-05T08:14:53.488Z,1002.92
2017-02-05T08:15:19.051Z,1002.91
2017-02-05T08:15:44.697Z,1002.9
2017-02-05T08:16:10.283Z,1002.9
2017-02-05T08:16:35.994Z,1002.93
2017-02-05T08:17:01.547Z,1002.89
2017-02-05T08:17:27.260Z,1002.86
2017-02-05T08:17:52.811Z,1002.88
2017-02-05T08:18:18.488Z,1002.9
2017-02-05T08:18:44.075Z,1002.9
2017-02-05T08:19:09.626Z,1002.87
2017-02-05T08:19:35.232Z,1002.87
2017-02-05T08:20:00.820Z,1002.9
2017-02-05T08:20:26.374Z,1002.88
2017-02-05T08:20:51.927Z,1002.91
2017-02-05T08:21:17.505Z,1002.91
2017-02-05T08:21:43.137Z,1002.89
2017-02-05T08:22:08.722Z,1002.9
2017-02-05T08:22:34.308Z,1002.91
2017-02-05T08:22:59.866Z,1002.93
2017-02-05T08:23:25.425Z,1002.91
2017-02-05T08:23:50.988Z,1002.9
2017-02-05T08:24:16.684Z,1002.96
2017-02-05T08:24:42.239Z,1002.9
2017-02-05T08:25:07.858Z,1002.95
2017-02-05T08:25:33.419Z,1002.94
2017-02-05T08:25:59.017Z,1002.94
2017-02-05T08:26:24.580Z,1002.96
2017-02-05T08:26:50.142Z,1003
2017-02-05T08:27:15.864Z,1002.93
2017-02-05T08:27:41.485Z,1002.94
2017-02-05T08:28:44.960Z,1002.98
2017-02-05T08:29:10.537Z,1002.99
2017-02-05T08:29:36.096Z,1002.98
2017-02-05T08:30:01.657Z,1002.99
2017-02-05T08:30:27.217Z,1002.99
2017-02-05T08:30:52.822Z,1002.98
2017-02-05T08:31:18.398Z,1003.03
2017-02-05T08:31:43.965Z,1002.99
2017-02-05T08:32:09.559Z,1003
2017-02-05T08:32:35.213Z,1003.02
2017-02-05T08:33:00.761Z,1003.03
2017-02-05T08:33:26.339Z,1003.04
2017-02-05T08:33:51.981Z,1003.02
2017-02-05T08:34:17.635Z,1003.03
2017-02-05T08:34:43.212Z,1003.02
2017-02-05T08:35:08.790Z,1003.07
2017-02-05T08:35:34.370Z,1003.08
2017-02-05T08:35:59.926Z,1003.08
2017-02-05T08:36:25.492Z,1003.01
2017-02-05T08:36:51.043Z,1003.03
2017-02-05T08:37:16.611Z,1003.08
2017-02-05T08:37:42.188Z,1003.02
2017-02-05T08:38:07.779Z,1003.06
2017-02-05T08:38:33.328Z,1003.03
2017-02-05T08:38:58.925Z,1003.01
2017-02-05T08:39:24.515Z,1003.04
2017-02-05T08:39:50.074Z,1003.02
2017-02-05T08:40:15.697Z,1002.98
2017-02-05T08:40:41.295Z,1002.99
2017-02-05T08:41:06.940Z,1003
2017-02-05T08:41:32.513Z,1002.99
2017-02-05T08:41:58.319Z,1002.98
2017-02-05T08:42:24.084Z,1002.97
2017-02-05T08:42:49.737Z,1002.99
2017-02-05T08:43:15.327Z,1002.96
2017-02-05T08:43:40.880Z,1003
2017-02-05T08:44:06.489Z,1003.01
2017-02-05T08:44:32.137Z,1003.01
2017-02-05T08:44:57.742Z,1003
2017-02-05T08:45:23.328Z,1003.02
2017-02-05T08:45:48.943Z,1003.06
2017-02-05T08:46:14.506Z,1003.02
2017-02-05T08:46:40.075Z,1003.03
2017-02-05T08:47:05.820Z,1003.05
2017-02-05T08:47:31.425Z,1003.03
2017-02-05T08:47:56.990Z,1003.02
2017-02-05T08:48:22.571Z,1003.01
2017-02-05T08:48:48.178Z,1003.02
2017-02-05T08:49:13.747Z,1003.01
2017-02-05T08:49:39.335Z,1003.01
2017-02-05T08:50:04.962Z,1003
2017-02-05T08:50:30.540Z,1003.07
2017-02-05T08:50:56.133Z,1003.01
2017-02-05T08:51:21.729Z,1003.01
2017-02-05T08:51:47.313Z,1003.01
2017-02-05T08:52:12.866Z,1003.04
2017-02-05T08:52:38.454Z,1003.05
2017-02-05T08:53:04.030Z,1003.04
2017-02-05T08:53:29.609Z,1003
2017-02-05T08:53:55.275Z,1003.01
2017-02-05T08:54:21.007Z,1003
2017-02-05T08:54:46.583Z,1003.08
2017-02-05T08:55:12.144Z,1003.04
2017-02-05T08:55:37.744Z,1003.05
2017-02-05T08:56:03.390Z,1003.06
2017-02-05T08:56:29.192Z,1003.08
2017-02-05T08:56:54.782Z,1003.05
2017-02-05T08:57:20.449Z,1003.05
2017-02-05T08:57:46.025Z,1003.07
2017-02-05T08:58:11.587Z,1003.08
2017-02-05T08:58:37.184Z,1003.08
2017-02-05T08:59:02.862Z,1003.09
2017-02-05T08:59:28.431Z,1003.08
2017-02-05T08:59:54.015Z,1003.12
2017-02-05T09:00:19.584Z,1003.09
2017-02-05T09:00:45.185Z,1003.11
2017-02-05T09:01:47.926Z,1003.14
2017-02-05T09:02:13.513Z,1003.12
2017-02-05T09:02:39.274Z,1003.14
2017-02-05T09:03:04.853Z,1003.17
2017-02-05T09:03:30.526Z,1003.12
2017-02-05T09:03:56.177Z,1003.14
2017-02-05T09:04:21.735Z,1003.15
2017-02-05T09:04:47.877Z,1003.15
2017-02-05T09:05:13.459Z,1003.16
2017-02-05T09:05:39.656Z,1003.2
2017-02-05T09:06:05.274Z,1003.18
2017-02-05T09:06:30.856Z,1003.2
2017-02-05T09:06:57.037Z,1003.15
2017-02-05T09:07:22.683Z,1003.19
2017-02-05T09:07:48.806Z,1003.18
2017-02-05T09:08:14.487Z,1003.18
2017-02-05T09:08:40.570Z,1003.2
2017-02-05T09:09:06.308Z,1003.2
2017-02-05T09:09:31.851Z,1003.17
2017-02-05T09:09:57.994Z,1003.18
2017-02-05T09:10:23.569Z,1003.16
2017-02-05T09:11:21.907Z,1003.15
2017-02-05T09:11:47.461Z,1003.17
2017-02-05T09:12:13.013Z,1003.19
2017-02-05T09:12:38.592Z,1003.18
2017-02-05T09:13:04.174Z,1003.17
2017-02-05T09:13:29.721Z,1003.19
2017-02-05T09:13:55.284Z,1003.18
2017-02-05T09:14:20.836Z,1003.16
2017-02-05T09:14:46.456Z,1003.19
2017-02-05T09:15:12.051Z,1003.18
2017-02-05T09:15:37.606Z,1003.19
2017-02-05T09:16:03.162Z,1003.17
2017-02-05T09:16:28.813Z,1003.16
2017-02-05T09:16:54.390Z,1003.22
2017-02-05T09:17:19.979Z,1003.22
2017-02-05T09:17:45.545Z,1003.21
2017-02-05T09:18:11.109Z,1003.17
2017-02-05T09:18:36.671Z,1003.16
2017-02-05T09:19:02.255Z,1003.17
2017-02-05T09:19:27.819Z,1003.22
2017-02-05T09:19:53.393Z,1003.22
2017-02-05T09:20:19.013Z,1003.16
2017-02-05T09:20:44.568Z,1003.2
2017-02-05T09:21:10.231Z,1003.19
2017-02-05T09:21:35.855Z,1003.21
2017-02-05T09:22:01.413Z,1003.19
2017-02-05T09:22:26.992Z,1003.21
2017-02-05T09:22:53.168Z,1003.16
2017-02-05T09:23:18.747Z,1003.17
2017-02-05T09:23:44.347Z,1003.17
2017-02-05T09:24:09.939Z,1003.21
2017-02-05T09:24:35.512Z,1003.24
2017-02-05T09:25:01.114Z,1003.24
2017-02-05T09:26:20.010Z,1003.22
2017-02-05T09:26:45.583Z,1003.25
2017-02-05T09:27:11.156Z,1003.23
2017-02-05T09:27:36.744Z,1003.24
2017-02-05T09:28:02.354Z,1003.27
2017-02-05T09:28:27.985Z,1003.25
2017-02-05T09:28:53.569Z,1003.24
2017-02-05T09:29:19.174Z,1003.26
2017-02-05T09:29:44.745Z,1003.25
2017-02-05T09:30:10.341Z,1003.24
2017-02-05T09:30:36.015Z,1003.26
2017-02-05T09:31:01.603Z,1003.26
2017-02-05T09:31:27.184Z,1003.25
2017-02-05T09:31:53.124Z,1003.25
2017-02-05T09:32:19.280Z,1003.25
2017-02-05T09:32:45.676Z,1003.24
2017-02-05T09:33:11.956Z,1003.29
2017-02-05T09:33:38.181Z,1003.31
2017-02-05T09:34:04.314Z,1003.32
2017-02-05T09:34:30.586Z,1003.31
2017-02-05T09:34:57.043Z,1003.29
2017-02-05T09:36:05.873Z,1003.32
2017-02-05T09:36:31.445Z,1003.33
2017-02-05T09:38:38.928Z,1003.35
2017-02-05T09:39:04.548Z,1003.3
2017-02-05T09:39:30.119Z,1003.38
2017-02-05T09:39:55.818Z,1003.31
2017-02-05T09:40:21.615Z,1003.34
2017-02-05T09:40:47.325Z,1003.31
2017-02-05T09:41:12.898Z,1003.33
2017-02-05T09:41:38.595Z,1003.37
2017-02-05T09:42:04.140Z,1003.31
2017-02-05T09:42:29.731Z,1003.33
2017-02-05T09:42:55.366Z,1003.33
2017-02-05T09:43:20.922Z,1003.41
2017-02-05T09:43:46.497Z,1003.37
2017-02-05T09:44:12.197Z,1003.41
2017-02-05T09:44:37.836Z,1003.4
2017-02-05T09:45:03.424Z,1003.43
2017-02-05T09:45:28.999Z,1003.42
2017-02-05T09:45:54.615Z,1003.45
2017-02-05T09:46:20.232Z,1003.47
2017-02-05T09:46:45.781Z,1003.5
2017-02-05T09:47:11.333Z,1003.51
2017-02-05T09:47:36.919Z,1003.46
2017-02-05T09:48:02.561Z,1003.5
2017-02-05T09:48:28.417Z,1003.49
2017-02-05T09:49:42.159Z,1003.52
2017-02-05T09:50:07.743Z,1003.55
2017-02-05T09:50:33.300Z,1003.55
2017-02-05T09:50:58.892Z,1003.54
2017-02-05T09:51:24.500Z,1003.59
2017-02-05T09:52:32.804Z,1003.6
2017-02-05T09:52:58.382Z,1003.6
2017-02-05T09:55:05.627Z,1003.64
2017-02-05T09:55:31.198Z,1003.62
2017-02-05T09:55:56.768Z,1003.61
2017-02-05T09:56:22.443Z,1003.65
2017-02-05T09:56:48.003Z,1003.65
2017-02-05T09:57:13.680Z,1003.63
2017-02-05T09:57:39.252Z,1003.6
2017-02-05T09:58:04.871Z,1003.63
2017-02-05T09:58:30.631Z,1003.62
2017-02-05T09:58:56.200Z,1003.6
2017-02-05T09:59:21.744Z,1003.62
2017-02-05T09:59:47.331Z,1003.61
2017-02-05T10:00:12.904Z,1003.66
2017-02-05T10:00:38.472Z,1003.6
2017-02-05T10:01:04.018Z,1003.6
2017-02-05T10:01:29.571Z,1003.64
2017-02-05T10:01:55.211Z,1003.6
2017-02-05T10:02:20.790Z,1003.61
2017-02-05T10:02:46.442Z,1003.62
2017-02-05T10:03:12.014Z,1003.64
2017-02-05T10:03:37.585Z,1003.66
2017-02-05T10:04:03.201Z,1003.66
2017-02-05T10:04:28.896Z,1003.65
2017-02-05T10:04:54.555Z,1003.68
2017-02-05T10:05:20.500Z,1003.66
2017-02-05T10:06:23.922Z,1003.68
2017-02-05T10:06:49.657Z,1003.68
2017-02-05T10:07:15.473Z,1003.66
2017-02-05T10:07:41.052Z,1003.69
2017-02-05T10:08:06.623Z,1003.68
2017-02-05T10:08:32.225Z,1003.69
2017-02-05T10:08:57.790Z,1003.69
2017-02-05T10:09:23.353Z,1003.65
2017-02-05T10:09:48.927Z,1003.72
2017-02-05T10:10:14.641Z,1003.69
2017-02-05T10:10:40.229Z,1003.66
2017-02-05T10:11:05.793Z,1003.67
2017-02-05T10:11:31.364Z,1003.7
2017-02-05T10:11:57.024Z,1003.73
2017-02-05T10:12:22.591Z,1003.78
2017-02-05T10:12:48.153Z,1003.69
2017-02-05T10:13:46.580Z,1003.77
2017-02-05T10:14:12.270Z,1003.73
2017-02-05T10:14:37.835Z,1003.77
2017-02-05T10:16:45.072Z,1003.75
2017-02-05T10:17:10.645Z,1003.72
2017-02-05T10:17:36.200Z,1003.7
2017-02-05T10:18:02.384Z,1003.71
2017-02-05T10:19:35.815Z,1003.76
2017-02-05T10:20:01.402Z,1003.74
2017-02-05T10:20:26.980Z,1003.78
2017-02-05T10:20:52.537Z,1003.76
2017-02-05T10:21:18.122Z,1003.81
2017-02-05T10:21:43.704Z,1003.8
2017-02-05T10:22:09.281Z,1003.8
2017-02-05T10:22:34.851Z,1003.82
2017-02-05T10:23:00.403Z,1003.84
2017-02-05T10:23:25.965Z,1003.81
2017-02-05T10:23:51.539Z,1003.84
2017-02-05T10:24:17.169Z,1003.84
2017-02-05T10:24:42.775Z,1003.82
2017-02-05T10:25:08.443Z,1003.81
2017-02-05T10:25:34.004Z,1003.83
2017-02-05T10:25:59.582Z,1003.85
2017-02-05T10:26:25.144Z,1003.85
2017-02-05T10:26:50.712Z,1003.85
2017-02-05T10:27:16.295Z,1003.85
2017-02-05T10:27:41.877Z,1003.85
2017-02-05T10:28:07.432Z,1003.88
2017-02-05T10:28:33.003Z,1003.85
2017-02-05T10:28:58.654Z,1003.89
2017-02-05T10:29:24.298Z,1003.86
2017-02-05T10:29:49.859Z,1003.9
2017-02-05T10:30:15.527Z,1003.86
2017-02-05T10:30:41.132Z,1003.86
2017-02-05T10:31:06.700Z,1003.86
2017-02-05T10:31:32.263Z,1003.88
2017-02-05T10:31:57.881Z,1003.91
2017-02-05T10:32:23.473Z,1003.89
2017-02-05T10:32:49.051Z,1003.87